createdAt,value
2023-04-04T00:00:24.663Z,1.68
2023-04-04T00:02:51.675Z,1.74
2023-04-04T00:05:18.889Z,1.74
2023-04-04T00:07:48.140Z,1.74
2023-04-04T00:10:15.527Z,1.75
2023-04-04T00:12:43.027Z,1.74
2023-04-04T00:15:09.928Z,1.66
2023-04-04T00:17:36.343Z,1.67
2023-04-04T00:20:04.350Z,1.68
2023-04-04T00:22:31.475Z,1.71
2023-04-04T00:24:58.006Z,1.72
2023-04-04T00:27:24.424Z,1.73
2023-04-04T00:29:50.821Z,1.61
2023-04-04T00:32:17.262Z,1.59
2023-04-04T00:34:43.658Z,1.65
2023-04-04T00:37:13.042Z,1.65
2023-04-04T00:39:40.335Z,1.64
2023-04-04T00:42:07.316Z,1.61
2023-04-04T00:44:35.708Z,1.66
2023-04-04T00:47:04.120Z,1.54
2023-04-04T00:49:30.558Z,1.55
2023-04-04T00:51:57.931Z,1.49
2023-04-04T00:54:24.399Z,1.44
2023-04-04T00:56:55.216Z,1.42
2023-04-04T00:59:27.771Z,1.39
2023-04-04T01:01:54.574Z,1.39
2023-04-04T01:04:21.200Z,1.40
2023-04-04T01:06:48.869Z,1.35
2023-04-04T01:09:15.664Z,1.32
2023-04-04T01:11:43.986Z,1.24
2023-04-04T01:14:10.485Z,1.23
2023-04-04T01:16:37.028Z,1.25
2023-04-04T01:19:34.790Z,1.23
2023-04-04T01:22:06.637Z,1.21
2023-04-04T01:24:34.126Z,1.17
2023-04-04T01:27:03.169Z,1.17
2023-04-04T01:29:29.580Z,1.10
2023-04-04T01:32:08.393Z,1.08
2023-04-04T01:34:47.232Z,1.14
2023-04-04T01:37:23.208Z,1.12
2023-04-04T01:39:56.358Z,1.08
2023-04-04T01:42:24.295Z,1.03
2023-04-04T01:44:56.987Z,1.05
2023-04-04T01:47:29.243Z,1.00
2023-04-04T01:49:55.725Z,0.92
2023-04-04T01:52:22.896Z,0.96
2023-04-04T01:54:49.297Z,0.92
2023-04-04T01:57:15.765Z,0.86
2023-04-04T01:59:42.963Z,0.87
2023-04-04T02:02:10.719Z,0.81
2023-04-04T02:04:37.508Z,0.77
2023-04-04T02:07:04.497Z,0.75
2023-04-04T02:09:31.389Z,0.71
2023-04-04T02:11:57.775Z,0.65
2023-04-04T02:14:24.316Z,0.63
2023-04-04T02:16:51.655Z,0.63
2023-04-04T02:19:18.732Z,0.56
2023-04-04T02:21:45.208Z,0.52
2023-04-04T02:24:11.650Z,0.41
2023-04-04T02:26:38.946Z,0.37
2023-04-04T02:29:06.262Z,0.36
2023-04-04T02:31:32.784Z,0.38
2023-04-04T02:33:59.240Z,0.30
2023-04-04T02:36:25.643Z,0.33
2023-04-04T02:38:54.077Z,0.38
2023-04-04T02:41:23.744Z,0.27
2023-04-04T02:43:50.329Z,0.28
2023-04-04T02:46:22.096Z,0.25
2023-04-04T02:48:53.264Z,0.24
2023-04-04T02:51:19.862Z,0.21
2023-04-04T02:53:46.948Z,0.21
2023-04-04T02:56:20.564Z,0.19
2023-04-04T02:58:47.088Z,0.20
2023-04-04T03:01:13.521Z,0.11
2023-04-04T03:03:40.020Z,0.09
2023-04-04T03:06:06.576Z,0.09
2023-04-04T03:08:32.999Z,0.08
2023-04-04T03:10:59.709Z,0.03
2023-04-04T03:13:26.947Z,0.04
2023-04-04T03:16:03.032Z,0.01
2023-04-04T03:18:35.247Z,0.03
2023-04-04T03:21:01.666Z,0.02
2023-04-04T03:23:28.074Z,0.00
2023-04-04T03:25:55.173Z,-0.03
2023-04-04T03:28:21.765Z,-0.04
2023-04-04T03:30:48.169Z,-0.04
2023-04-04T03:33:15.213Z,-0.06
2023-04-04T03:35:42.134Z,-0.07
2023-04-04T03:38:09.779Z,-0.14
2023-04-04T03:40:36.547Z,-0.18
2023-04-04T03:43:08.676Z,-0.21
2023-04-04T03:45:38.424Z,-0.23
2023-04-04T03:48:05.539Z,-0.27
2023-04-04T03:50:32.067Z,-0.29
2023-04-04T03:52:58.597Z,-0.27
2023-04-04T03:55:26.230Z,-0.34
2023-04-04T03:57:57.383Z,-0.26
2023-04-04T04:00:23.973Z,-0.33
2023-04-04T04:02:50.393Z,-0.34
2023-04-04T04:05:18.929Z,-0.36
2023-04-04T04:07:45.631Z,-0.37
2023-04-04T04:10:14.158Z,-0.34
2023-04-04T04:12:40.700Z,-0.36
2023-04-04T04:15:07.862Z,-0.38
2023-04-04T04:17:34.801Z,-0.41
2023-04-04T04:20:01.408Z,-0.39
2023-04-04T04:22:36.162Z,-0.39
2023-04-04T04:25:03.131Z,-0.43
2023-04-04T04:27:30.926Z,-0.53
2023-04-04T04:29:57.498Z,-0.51
2023-04-04T04:32:26.493Z,-0.50
2023-04-04T04:34:53.877Z,-0.51
2023-04-04T04:37:26.261Z,-0.53
2023-04-04T04:39:55.403Z,-0.56
2023-04-04T04:42:44.254Z,-0.54
2023-04-04T04:45:10.926Z,-0.63
2023-04-04T04:47:40.117Z,-0.60
2023-04-04T04:50:08.803Z,-0.61
2023-04-04T04:52:40.181Z,-0.61
2023-04-04T04:55:07.408Z,-0.72
2023-04-04T04:57:38.203Z,-0.73
2023-04-04T05:00:12.586Z,-0.85
2023-04-04T05:02:39.108Z,-0.84
2023-04-04T05:05:06.389Z,-0.75
2023-04-04T05:07:33.830Z,-0.72
2023-04-04T05:10:00.402Z,-0.78
2023-04-04T05:12:27.123Z,-0.72
2023-04-04T05:14:54.798Z,-0.57
2023-04-04T05:17:22.972Z,-0.45
2023-04-04T05:19:51.728Z,-0.42
2023-04-04T05:22:21.139Z,-0.35
2023-04-04T05:24:51.233Z,-0.27
2023-04-04T05:27:21.653Z,-0.24
2023-04-04T05:29:54.289Z,-0.08
2023-04-04T05:32:21.819Z,-0.02
2023-04-04T05:34:57.167Z,0.05
2023-04-04T05:37:23.562Z,0.13
2023-04-04T05:39:50.001Z,0.13
2023-04-04T05:42:17.691Z,0.25
2023-04-04T05:44:49.069Z,0.36
2023-04-04T05:47:15.994Z,0.48
2023-04-04T05:49:45.903Z,0.77
2023-04-04T05:52:12.418Z,0.70
2023-04-04T05:54:38.868Z,0.83
2023-04-04T05:57:11.836Z,1.00
2023-04-04T05:59:49.834Z,1.17
2023-04-04T06:02:17.358Z,1.17
2023-04-04T06:04:49.333Z,1.40
2023-04-04T06:07:21.369Z,1.65
2023-04-04T06:09:50.531Z,1.73
2023-04-04T06:12:17.319Z,1.85
2023-04-04T06:14:43.735Z,2.17
2023-04-04T06:17:10.753Z,2.32
2023-04-04T06:19:37.213Z,2.66
2023-04-04T06:22:03.627Z,2.77
2023-04-04T06:24:33.364Z,2.77
2023-04-04T06:27:01.743Z,2.83
2023-04-04T06:29:28.594Z,3.01
2023-04-04T06:31:58.291Z,3.27
2023-04-04T06:34:34.111Z,3.48
2023-04-04T06:37:01.290Z,3.68
2023-04-04T06:39:34.322Z,3.70
2023-04-04T06:42:03.466Z,3.95
2023-04-04T06:44:32.673Z,3.99
2023-04-04T06:46:59.143Z,4.21
2023-04-04T06:49:25.643Z,4.41
2023-04-04T06:51:52.599Z,4.51
2023-04-04T06:54:19.698Z,4.73
2023-04-04T06:56:46.119Z,4.69
2023-04-04T06:59:12.981Z,4.99
2023-04-04T07:01:39.505Z,4.75
2023-04-04T07:04:05.937Z,4.91
2023-04-04T07:06:32.331Z,4.89
2023-04-04T07:08:58.839Z,4.98
2023-04-04T07:11:25.384Z,4.94
2023-04-04T07:13:51.787Z,4.97
2023-04-04T07:16:18.186Z,5.30
2023-04-04T07:18:44.577Z,5.47
2023-04-04T07:21:10.967Z,5.58
2023-04-04T07:23:37.369Z,5.78
2023-04-04T07:26:03.782Z,5.94
2023-04-04T07:28:30.211Z,6.02
2023-04-04T07:31:00.724Z,6.37
2023-04-04T07:33:27.700Z,6.53
2023-04-04T07:35:54.635Z,6.53
2023-04-04T07:38:21.064Z,6.54
2023-04-04T07:40:50.505Z,6.88
2023-04-04T07:43:17.209Z,6.83
2023-04-04T07:45:43.688Z,6.85
2023-04-04T07:48:10.211Z,6.81
2023-04-04T07:50:36.670Z,6.86
2023-04-04T07:53:03.104Z,6.73
2023-04-04T07:55:29.599Z,6.97
2023-04-04T07:57:56.240Z,6.87
2023-04-04T08:00:25.718Z,6.77
2023-04-04T08:02:56.231Z,6.71
2023-04-04T08:05:23.508Z,6.57
2023-04-04T08:07:49.922Z,6.51
2023-04-04T08:10:20.728Z,7.01
2023-04-04T08:12:48.055Z,7.50
2023-04-04T08:15:16.314Z,7.48
2023-04-04T08:17:45.341Z,7.67
2023-04-04T08:20:12.435Z,7.02
2023-04-04T08:22:40.841Z,6.95
2023-04-04T08:25:07.563Z,7.19
2023-04-04T08:27:34.110Z,7.18
2023-04-04T08:30:00.541Z,7.26
2023-04-04T08:32:26.974Z,7.07
2023-04-04T08:34:53.398Z,7.00
2023-04-04T08:37:19.790Z,7.03
2023-04-04T08:39:46.187Z,7.23
2023-04-04T08:42:16.787Z,7.11
2023-04-04T08:44:45.678Z,7.14
2023-04-04T08:47:13.437Z,7.27
2023-04-04T08:49:44.030Z,7.36
2023-04-04T08:52:12.765Z,7.13
2023-04-04T08:54:40.668Z,7.45
2023-04-04T08:57:08.251Z,7.71
2023-04-04T08:59:34.966Z,7.28
2023-04-04T09:02:15.867Z,7.62
2023-04-04T09:04:48.834Z,7.34
2023-04-04T09:07:22.744Z,7.54
2023-04-04T09:09:50.518Z,6.97
2023-04-04T09:12:17.212Z,6.99
2023-04-04T09:14:44.443Z,6.76
2023-04-04T09:17:10.953Z,6.83
2023-04-04T09:19:37.804Z,7.12
2023-04-04T09:22:07.886Z,7.18
2023-04-04T09:24:42.058Z,6.99
2023-04-04T09:27:13.181Z,7.23
2023-04-04T09:29:40.877Z,7.23
2023-04-04T09:32:09.146Z,7.38
2023-04-04T09:34:36.469Z,7.63
2023-04-04T09:37:05.199Z,7.69
2023-04-04T09:39:33.410Z,7.84
2023-04-04T09:42:01.211Z,7.84
2023-04-04T09:44:33.243Z,8.06
2023-04-04T09:47:30.636Z,8.41
2023-04-04T09:50:02.873Z,8.57
2023-04-04T09:52:33.873Z,8.64
2023-04-04T09:55:01.495Z,8.19
2023-04-04T09:57:37.993Z,8.12
2023-04-04T10:00:09.440Z,7.79
2023-04-04T10:02:46.903Z,7.82
2023-04-04T10:05:14.233Z,7.82
2023-04-04T10:07:42.296Z,7.94
2023-04-04T10:10:11.698Z,7.95
2023-04-04T10:12:38.733Z,7.98
2023-04-04T10:15:05.548Z,8.07
2023-04-04T10:17:38.314Z,8.40
2023-04-04T10:20:06.681Z,8.58
2023-04-04T10:22:33.881Z,8.64
2023-04-04T10:25:00.556Z,8.06
2023-04-04T10:27:27.346Z,8.30
2023-04-04T10:29:53.892Z,8.14
2023-04-04T10:32:26.650Z,8.50
2023-04-04T10:35:02.734Z,8.56
2023-04-04T10:37:34.840Z,8.78
2023-04-04T10:40:06.742Z,8.55
2023-04-04T10:42:39.968Z,8.54
2023-04-04T10:45:20.359Z,8.44
2023-04-04T10:47:48.339Z,8.53
2023-04-04T10:50:15.214Z,8.69
2023-04-04T10:52:44.495Z,8.17
2023-04-04T10:55:12.961Z,8.60
2023-04-04T10:57:44.710Z,8.79
2023-04-04T11:00:13.074Z,8.34
2023-04-04T11:02:54.389Z,8.00
2023-04-04T11:05:47.146Z,8.22
2023-04-04T11:08:24.937Z,8.66
2023-04-04T11:10:53.462Z,8.56
2023-04-04T11:13:35.681Z,8.68
2023-04-04T11:16:15.086Z,9.11
2023-04-04T11:18:41.576Z,9.35
2023-04-04T11:21:10.082Z,9.23
2023-04-04T11:23:48.658Z,9.47
2023-04-04T11:26:30.618Z,9.32
2023-04-04T11:29:02.096Z,8.79
2023-04-04T11:31:32.562Z,8.55
2023-04-04T11:34:12.240Z,8.53
2023-04-04T11:36:42.993Z,8.51
2023-04-04T11:39:30.271Z,9.00
2023-04-04T11:42:06.803Z,8.47
2023-04-04T11:44:39.704Z,8.09
2023-04-04T11:47:06.034Z,8.59
2023-04-04T11:49:37.776Z,8.65
2023-04-04T11:52:09.920Z,8.79
2023-04-04T11:54:37.694Z,9.19
2023-04-04T11:57:06.740Z,9.75
2023-04-04T11:59:33.254Z,9.56
2023-04-04T12:02:00.393Z,9.18
2023-04-04T12:04:27.558Z,9.01
2023-04-04T12:06:56.517Z,9.65
2023-04-04T12:09:25.732Z,9.72
2023-04-04T12:11:52.650Z,9.32
2023-04-04T12:14:20.844Z,8.59
2023-04-04T12:16:52.402Z,8.94
2023-04-04T12:19:18.874Z,9.38
2023-04-04T12:21:49.048Z,9.56
2023-04-04T12:24:15.806Z,9.33
2023-04-04T12:26:44.633Z,9.56
2023-04-04T12:29:13.734Z,9.65
2023-04-04T12:31:42.968Z,9.27
2023-04-04T12:34:33.473Z,9.40
2023-04-04T12:37:01.740Z,8.98
2023-04-04T12:39:29.789Z,9.07
2023-04-04T12:42:03.658Z,9.31
2023-04-04T12:44:34.404Z,9.55
2023-04-04T12:47:04.623Z,9.97
2023-04-04T12:49:35.440Z,10.03
2023-04-04T12:52:05.206Z,10.03
2023-04-04T12:54:32.797Z,9.74
2023-04-04T12:57:04.171Z,9.58
2023-04-04T12:59:32.760Z,9.59
2023-04-04T13:02:02.602Z,9.91
2023-04-04T13:04:29.193Z,9.76
2023-04-04T13:06:55.667Z,9.29
2023-04-04T13:09:23.356Z,9.01
2023-04-04T13:11:57.142Z,9.84
2023-04-04T13:14:23.539Z,10.03
2023-04-04T13:17:05.447Z,10.19
2023-04-04T13:19:32.203Z,10.38
2023-04-04T13:22:00.227Z,10.04
2023-04-04T13:24:26.611Z,9.97
2023-04-04T13:26:53.056Z,9.92
2023-04-04T13:29:19.612Z,9.99
2023-04-04T13:31:46.017Z,10.00
2023-04-04T13:34:12.431Z,10.10
2023-04-04T13:36:38.848Z,9.92
2023-04-04T13:39:05.323Z,9.43
2023-04-04T13:41:31.741Z,9.41
2023-04-04T13:43:58.137Z,9.23
2023-04-04T13:46:24.572Z,9.52
2023-04-04T13:48:51.007Z,9.80
2023-04-04T13:51:17.467Z,9.90
2023-04-04T13:53:47.102Z,9.87
2023-04-04T13:56:18.341Z,10.30
2023-04-04T13:58:45.725Z,10.13
2023-04-04T14:01:12.369Z,9.88
2023-04-04T14:03:38.826Z,9.36
2023-04-04T14:06:10.409Z,9.77
2023-04-04T14:08:37.416Z,9.01
2023-04-04T14:11:04.108Z,9.42
2023-04-04T14:13:32.541Z,9.67
2023-04-04T14:15:58.980Z,9.65
2023-04-04T14:18:25.636Z,9.94
2023-04-04T14:20:52.065Z,10.08
2023-04-04T14:23:18.463Z,9.96
2023-04-04T14:25:45.113Z,10.46
2023-04-04T14:28:11.864Z,10.59
2023-04-04T14:30:38.311Z,10.70
2023-04-04T14:33:04.761Z,10.25
2023-04-04T14:35:31.204Z,10.06
2023-04-04T14:37:57.606Z,10.07
2023-04-04T14:40:23.990Z,10.35
2023-04-04T14:42:50.564Z,10.28
2023-04-04T14:45:17.588Z,10.20
2023-04-04T14:47:44.053Z,9.67
2023-04-04T14:50:10.558Z,9.97
2023-04-04T14:52:37.027Z,9.97
2023-04-04T14:55:03.750Z,10.02
2023-04-04T14:57:32.131Z,9.54
2023-04-04T15:00:02.238Z,9.41
2023-04-04T15:02:28.862Z,9.07
2023-04-04T15:04:55.321Z,8.91
2023-04-04T15:07:24.181Z,8.79
2023-04-04T15:09:50.633Z,8.86
2023-04-04T15:12:17.088Z,9.08
2023-04-04T15:14:43.468Z,9.21
2023-04-04T15:17:09.888Z,9.37
2023-04-04T15:19:36.984Z,9.36
2023-04-04T15:22:04.662Z,9.16
2023-04-04T15:24:31.065Z,9.03
2023-04-04T15:26:57.848Z,9.00
2023-04-04T15:29:24.381Z,9.15
2023-04-04T15:31:50.903Z,9.24
2023-04-04T15:34:17.349Z,8.84
2023-04-04T15:36:44.213Z,8.52
2023-04-04T15:39:11.884Z,8.47
2023-04-04T15:41:38.303Z,8.63
2023-04-04T15:44:05.336Z,8.19
2023-04-04T15:46:31.853Z,8.08
2023-04-04T15:48:58.316Z,8.18
2023-04-04T15:51:25.731Z,8.09
2023-04-04T15:53:55.770Z,8.35
2023-04-04T15:56:22.487Z,8.37
2023-04-04T15:58:49.005Z,8.31
2023-04-04T16:01:15.472Z,8.39
2023-04-04T16:03:43.015Z,8.01
2023-04-04T16:06:12.898Z,7.99
2023-04-04T16:08:42.032Z,8.10
2023-04-04T16:11:08.519Z,8.25
2023-04-04T16:13:34.936Z,8.03
2023-04-04T16:16:01.392Z,7.92
2023-04-04T16:18:28.008Z,8.12
2023-04-04T16:20:54.401Z,8.08
2023-04-04T16:23:21.539Z,8.12
2023-04-04T16:25:47.956Z,8.16
2023-04-04T16:28:14.349Z,8.17
2023-04-04T16:30:40.853Z,8.13
2023-04-04T16:33:07.420Z,8.26
2023-04-04T16:35:34.560Z,8.24
2023-04-04T16:38:00.975Z,8.36
2023-04-04T16:40:27.401Z,8.32
2023-04-04T16:42:53.803Z,8.34
2023-04-04T16:45:21.584Z,8.31
2023-04-04T16:47:48.067Z,8.38
2023-04-04T16:50:14.514Z,8.25
2023-04-04T16:52:40.947Z,8.34
2023-04-04T16:55:08.690Z,8.29
2023-04-04T16:57:35.266Z,8.22
2023-04-04T17:00:01.664Z,8.22
2023-04-04T17:02:28.076Z,8.34
2023-04-04T17:04:54.479Z,8.28
2023-04-04T17:07:21.100Z,8.28
2023-04-04T17:09:48.795Z,7.94
2023-04-04T17:12:15.465Z,7.97
2023-04-04T17:14:41.911Z,8.02
2023-04-04T17:17:08.768Z,8.11
2023-04-04T17:19:35.712Z,8.07
2023-04-04T17:22:02.272Z,8.12
2023-04-04T17:24:28.665Z,8.06
2023-04-04T17:26:57.734Z,8.09
2023-04-04T17:29:26.838Z,8.00
2023-04-04T17:31:55.157Z,7.93
2023-04-04T17:34:21.910Z,7.99
2023-04-04T17:36:48.713Z,7.85
2023-04-04T17:39:15.257Z,7.85
2023-04-04T17:41:41.913Z,7.81
2023-04-04T17:44:09.127Z,7.71
2023-04-04T17:46:36.193Z,7.71
2023-04-04T17:49:02.680Z,7.62
2023-04-04T17:51:29.261Z,7.57
2023-04-04T17:53:55.657Z,7.62
2023-04-04T17:56:22.064Z,7.49
2023-04-04T17:58:48.454Z,7.46
2023-04-04T18:01:14.946Z,7.44
2023-04-04T18:03:41.423Z,7.34
2023-04-04T18:06:08.602Z,7.28
2023-04-04T18:08:34.993Z,7.39
2023-04-04T18:11:01.421Z,7.29
2023-04-04T18:13:27.837Z,7.24
2023-04-04T18:15:54.300Z,7.14
2023-04-04T18:18:21.308Z,7.09
2023-04-04T18:20:50.737Z,7.03
2023-04-04T18:23:17.491Z,6.94
2023-04-04T18:25:43.892Z,6.99
2023-04-04T18:28:10.315Z,6.99
2023-04-04T18:30:37.612Z,6.98
2023-04-04T18:33:04.544Z,6.94
2023-04-04T18:35:30.974Z,6.79
2023-04-04T18:37:57.362Z,6.69
2023-04-04T18:40:23.794Z,6.64
2023-04-04T18:42:52.037Z,6.64
2023-04-04T18:45:20.934Z,6.61
2023-04-04T18:47:47.531Z,6.53
2023-04-04T18:50:14.476Z,6.54
2023-04-04T18:52:42.354Z,6.51
2023-04-04T18:55:09.267Z,6.47
2023-04-04T18:57:37.191Z,6.44
2023-04-04T19:00:06.501Z,6.55
2023-04-04T19:02:34.158Z,6.44
2023-04-04T19:05:03.581Z,6.24
2023-04-04T19:07:31.413Z,6.20
2023-04-04T19:09:58.147Z,6.20
2023-04-04T19:12:24.543Z,6.17
2023-04-04T19:14:50.953Z,6.09
2023-04-04T19:17:18.129Z,6.08
2023-04-04T19:19:44.528Z,6.03
2023-04-04T19:22:10.921Z,6.06
2023-04-04T19:24:40.158Z,6.10
2023-04-04T19:27:06.922Z,6.08
2023-04-04T19:29:36.209Z,5.93
2023-04-04T19:32:09.882Z,5.82
2023-04-04T19:34:36.466Z,5.81
2023-04-04T19:37:02.950Z,5.71
2023-04-04T19:39:31.539Z,5.65
2023-04-04T19:41:58.062Z,5.60
2023-04-04T19:44:24.454Z,5.55
2023-04-04T19:46:50.904Z,5.54
2023-04-04T19:49:17.828Z,5.65
2023-04-04T19:51:53.622Z,5.52
2023-04-04T19:54:25.380Z,5.50
2023-04-04T19:56:57.265Z,5.46
2023-04-04T19:59:54.552Z,5.31
2023-04-04T20:02:26.847Z,5.09
2023-04-04T20:04:54.072Z,5.08
2023-04-04T20:07:20.532Z,5.16
2023-04-04T20:09:47.491Z,5.10
2023-04-04T20:12:16.012Z,4.99
2023-04-04T20:14:42.440Z,4.93
2023-04-04T20:17:09.641Z,4.88
2023-04-04T20:19:36.561Z,4.77
2023-04-04T20:22:04.997Z,4.76
2023-04-04T20:24:31.560Z,4.69
2023-04-04T20:26:59.470Z,4.55
2023-04-04T20:29:27.889Z,4.51
2023-04-04T20:32:00.510Z,4.49
2023-04-04T20:34:42.543Z,4.41
2023-04-04T20:37:19.729Z,4.20
2023-04-04T20:39:48.854Z,4.22
2023-04-04T20:42:32.165Z,4.17
2023-04-04T20:44:58.493Z,3.97
2023-04-04T20:47:40.269Z,3.94
2023-04-04T20:50:27.165Z,4.03
2023-04-04T20:52:58.529Z,3.90
2023-04-04T20:55:26.481Z,3.79
2023-04-04T20:57:56.601Z,3.76
2023-04-04T21:00:22.940Z,3.79
2023-04-04T21:02:49.449Z,3.68
2023-04-04T21:05:27.339Z,3.69
2023-04-04T21:07:53.892Z,3.68
2023-04-04T21:10:44.838Z,3.63
2023-04-04T21:13:11.297Z,3.67
2023-04-04T21:15:39.156Z,3.60
2023-04-04T21:18:09.993Z,3.53
2023-04-04T21:20:45.866Z,3.55
2023-04-04T21:23:26.807Z,3.47
2023-04-04T21:25:59.933Z,3.47
2023-04-04T21:28:37.901Z,3.38
2023-04-04T21:31:16.206Z,3.27
2023-04-04T21:33:43.694Z,3.30
2023-04-04T21:36:18.093Z,3.32
2023-04-04T21:38:44.522Z,3.41
2023-04-04T21:41:21.564Z,3.34
2023-04-04T21:43:47.949Z,3.27
2023-04-04T21:46:14.398Z,3.23
2023-04-04T21:48:40.849Z,3.12
2023-04-04T21:51:07.237Z,3.06
2023-04-04T21:53:33.709Z,3.00
2023-04-04T21:56:00.269Z,2.97
2023-04-04T21:58:26.702Z,2.98
2023-04-04T22:00:53.135Z,3.04
2023-04-04T22:03:19.555Z,3.07
2023-04-04T22:05:46.048Z,2.90
2023-04-04T22:08:12.466Z,2.82
2023-04-04T22:10:46.211Z,2.75
2023-04-04T22:13:17.062Z,2.64
2023-04-04T22:15:46.960Z,2.63
2023-04-04T22:18:17.294Z,2.62
2023-04-04T22:20:47.848Z,2.64
2023-04-04T22:23:17.618Z,2.57
2023-04-04T22:25:44.025Z,2.61
2023-04-04T22:28:10.429Z,2.50
2023-04-04T22:30:39.039Z,2.45
2023-04-04T22:33:05.899Z,2.40
2023-04-04T22:35:32.995Z,2.39
2023-04-04T22:38:00.947Z,2.38
2023-04-04T22:40:28.554Z,2.37
2023-04-04T22:42:55.511Z,2.31
2023-04-04T22:45:22.936Z,2.36
2023-04-04T22:47:49.894Z,2.37
2023-04-04T22:50:22.737Z,2.33
2023-04-04T22:52:49.321Z,2.28
2023-04-04T22:55:18.030Z,2.24
2023-04-04T22:57:44.432Z,2.26
2023-04-04T23:00:12.161Z,2.25
2023-04-04T23:02:39.840Z,2.22
2023-04-04T23:05:08.120Z,2.18
2023-04-04T23:07:36.048Z,2.15
2023-04-04T23:10:03.638Z,2.09
2023-04-04T23:12:30.097Z,2.06
2023-04-04T23:14:58.705Z,2.05
2023-04-04T23:17:25.587Z,2.02
2023-04-04T23:19:51.979Z,1.99
2023-04-04T23:22:18.398Z,1.95
2023-04-04T23:24:44.832Z,1.93
2023-04-04T23:27:12.399Z,1.89
2023-04-04T23:29:38.791Z,1.95
2023-04-04T23:32:05.450Z,1.93
2023-04-04T23:34:31.863Z,1.94
2023-04-04T23:36:58.267Z,1.93
2023-04-04T23:39:24.653Z,1.88
2023-04-04T23:41:51.147Z,1.82
2023-04-04T23:44:17.693Z,1.81
2023-04-04T23:46:44.559Z,1.75
2023-04-04T23:49:11.995Z,1.74
2023-04-04T23:51:39.503Z,1.69
2023-04-04T23:54:07.865Z,1.70
2023-04-04T23:56:35.097Z,1.65
2023-04-04T23:59:01.924Z,1.63
